Time;durP1;ratioP1;P1;durP2;ratioP2;P2;SDS_P1;SDS_P2;PMS_P1;PMS_P2;Temp;Humidity;BMP_temperature;BMP_pressure;BME280_temperature;BME280_humidity;BME280_pressure;Samples;Min_cycle;Max_cycle;Signal;HPM_P1;HPM_P2
2022/09/19 00:01:15;;;;;;;0.70;0.43;;;;;;;;;;5073338;28;20949;-71
2022/09/19 00:03:45;;;;;;;0.70;0.50;;;;;;;;;;5066030;28;20442;-71
2022/09/19 00:06:13;;;;;;;0.60;0.40;;;;;;;;;;5073818;28;20484;-71
2022/09/19 00:08:42;;;;;;;2.20;0.40;;;;;;;;;;5073355;28;20464;-71
2022/09/19 00:11:09;;;;;;;0.83;0.50;;;;;;;;;;5073503;28;20447;-71
2022/09/19 00:13:38;;;;;;;0.67;0.47;;;;;;;;;;5071792;28;20451;-71
2022/09/19 00:16:05;;;;;;;0.70;0.50;;;;;;;;;;5073223;28;20455;-71
2022/09/19 00:18:32;;;;;;;1.00;0.60;;;;;;;;;;5072348;28;20938;-71
2022/09/19 00:21:01;;;;;;;0.60;0.50;;;;;;;;;;5073413;28;20450;-71
2022/09/19 00:26:17;;;;;;;0.60;0.40;;;;;;;;;;5072981;28;20543;-71
2022/09/19 00:28:44;;;;;;;0.70;0.40;;;;;;;;;;5073439;28;20453;-71
2022/09/19 00:31:15;;;;;;;1.63;0.50;;;;;;;;;;5073120;28;21026;-71
2022/09/19 00:33:42;;;;;;;0.70;0.47;;;;;;;;;;5072775;28;20480;-70
2022/09/19 00:36:10;;;;;;;0.80;0.50;;;;;;;;;;5072720;28;20458;-71
2022/09/19 00:38:37;;;;;;;0.60;0.40;;;;;;;;;;5072277;28;20450;-71
2022/09/19 00:41:05;;;;;;;0.70;0.40;;;;;;;;;;5072704;28;20442;-71
2022/09/19 00:43:44;;;;;;;0.80;0.50;;;;;;;;;;5071897;28;20537;-71
2022/09/19 00:46:12;;;;;;;0.70;0.50;;;;;;;;;;5072430;28;20477;-71
2022/09/19 00:48:41;;;;;;;0.87;0.40;;;;;;;;;;5072336;28;20453;-71
2022/09/19 00:51:10;;;;;;;0.70;0.40;;;;;;;;;;5071921;28;20441;-71
2022/09/19 00:53:39;;;;;;;0.90;0.57;;;;;;;;;;5071247;28;20460;-71
2022/09/19 00:56:07;;;;;;;0.90;0.50;;;;;;;;;;5072165;28;20453;-71
2022/09/19 00:58:35;;;;;;;0.80;0.40;;;;;;;;;;5071735;28;20446;-71
2022/09/19 01:01:02;;;;;;;0.70;0.40;;;;;;;;;;5072317;28;20449;-71
2022/09/19 01:03:30;;;;;;;0.90;0.40;;;;;;;;;;5071492;28;20826;-71
2022/09/19 01:06:04;;;;;;;0.60;0.40;;;;;;;;;;5071871;28;20484;-71
2022/09/19 01:08:47;;;;;;;0.60;0.40;;;;;;;;;;5064102;28;20807;-71
2022/09/19 01:11:31;;;;;;;0.80;0.40;;;;;;;;;;5067555;28;20506;-71
2022/09/19 01:14:01;;;;;;;0.60;0.40;;;;;;;;;;5068918;28;20478;-71
2022/09/19 01:16:33;;;;;;;0.70;0.40;;;;;;;;;;5071013;28;20539;-71
2022/09/19 01:19:05;;;;;;;0.80;0.50;;;;;;;;;;5071870;28;20450;-71
2022/09/19 01:21:41;;;;;;;0.60;0.40;;;;;;;;;;5071786;28;20434;-71
2022/09/19 01:24:30;;;;;;;0.60;0.40;;;;;;;;;;5071536;28;20451;-71
2022/09/19 01:27:18;;;;;;;1.27;0.43;;;;;;;;;;5071700;28;20576;-71
2022/09/19 01:29:49;;;;;;;0.80;0.67;;;;;;;;;;5071303;28;20488;-71
2022/09/19 01:32:18;;;;;;;0.70;0.40;;;;;;;;;;5069963;28;20441;-71
2022/09/19 01:34:46;;;;;;;0.77;0.40;;;;;;;;;;5071270;28;20945;-72
2022/09/19 01:37:16;;;;;;;0.70;0.50;;;;;;;;;;5071559;28;20472;-71
2022/09/19 01:39:44;;;;;;;0.80;0.60;;;;;;;;;;5071888;28;20448;-71
2022/09/19 01:42:13;;;;;;;0.60;0.40;;;;;;;;;;5071359;28;20452;-71
2022/09/19 01:44:40;;;;;;;0.80;0.50;;;;;;;;;;5070172;28;20481;-72
2022/09/19 01:47:14;;;;;;;0.80;0.40;;;;;;;;;;5071293;28;20640;-71
2022/09/19 01:49:49;;;;;;;1.00;0.50;;;;;;;;;;5068376;28;20516;-72
2022/09/19 01:52:22;;;;;;;0.60;0.40;;;;;;;;;;5070839;28;20924;-71
2022/09/19 01:54:54;;;;;;;0.70;0.40;;;;;;;;;;5069871;28;20455;-71
2022/09/19 01:57:26;;;;;;;0.80;0.60;;;;;;;;;;5070655;28;20463;-71
2022/09/19 02:00:02;;;;;;;0.77;0.50;;;;;;;;;;5058753;28;20458;-71
2022/09/19 02:02:35;;;;;;;0.60;0.40;;;;;;;;;;5070425;28;20794;-71
2022/09/19 02:05:06;;;;;;;1.03;0.50;;;;;;;;;;5070363;28;20471;-71
2022/09/19 02:07:43;;;;;;;1.07;0.47;;;;;;;;;;5070607;28;20456;-71
2022/09/19 02:10:14;;;;;;;0.77;0.47;;;;;;;;;;5063305;28;20450;-71
2022/09/19 02:12:44;;;;;;;0.80;0.50;;;;;;;;;;5070587;28;20942;-71
2022/09/19 02:15:13;;;;;;;0.70;0.40;;;;;;;;;;5070777;28;20467;-71
2022/09/19 02:17:44;;;;;;;1.03;0.50;;;;;;;;;;5057380;28;20893;-71
2022/09/19 02:20:14;;;;;;;0.70;0.47;;;;;;;;;;5071562;28;20447;-71
2022/09/19 02:22:47;;;;;;;0.90;0.50;;;;;;;;;;5070358;28;20500;-71
2022/09/19 02:25:17;;;;;;;0.80;0.60;;;;;;;;;;5071284;28;20476;-71
2022/09/19 02:27:50;;;;;;;0.70;0.40;;;;;;;;;;5071202;28;20484;-71
2022/09/19 02:30:18;;;;;;;0.80;0.50;;;;;;;;;;5070612;28;20443;-71
2022/09/19 02:32:48;;;;;;;0.97;0.53;;;;;;;;;;5070239;28;20536;-71
2022/09/19 02:35:16;;;;;;;0.70;0.40;;;;;;;;;;5071025;28;20447;-71
2022/09/19 02:37:47;;;;;;;1.00;0.50;;;;;;;;;;5071156;28;20454;-71
2022/09/19 02:40:20;;;;;;;0.80;0.50;;;;;;;;;;5070847;28;20509;-71
2022/09/19 02:42:49;;;;;;;2.63;0.60;;;;;;;;;;5070228;28;20519;-71
2022/09/19 02:45:19;;;;;;;1.10;0.57;;;;;;;;;;5069795;28;20479;-70
2022/09/19 02:47:51;;;;;;;0.80;0.57;;;;;;;;;;5070861;28;20449;-71
2022/09/19 02:50:23;;;;;;;0.97;0.73;;;;;;;;;;5069895;28;20437;-71
2022/09/19 02:52:51;;;;;;;1.73;0.50;;;;;;;;;;5069806;28;20942;-71
2022/09/19 02:55:19;;;;;;;0.70;0.47;;;;;;;;;;5070328;28;20457;-71
2022/09/19 02:57:48;;;;;;;4.50;0.70;;;;;;;;;;5070800;28;20457;-71
2022/09/19 03:00:16;;;;;;;0.70;0.40;;;;;;;;;;5065905;28;20454;-71
2022/09/19 03:02:45;;;;;;;0.80;0.50;;;;;;;;;;5070076;28;20439;-71
2022/09/19 03:05:17;;;;;;;0.80;0.50;;;;;;;;;;5070722;28;20485;-71
2022/09/19 03:07:46;;;;;;;0.80;0.50;;;;;;;;;;5070911;28;20488;-71
2022/09/19 03:10:14;;;;;;;0.90;0.60;;;;;;;;;;5070483;28;20451;-71
2022/09/19 03:12:44;;;;;;;1.00;0.63;;;;;;;;;;5069787;28;20476;-71
2022/09/19 03:15:11;;;;;;;1.20;0.50;;;;;;;;;;5070271;28;20460;-71
2022/09/19 03:17:40;;;;;;;0.70;0.47;;;;;;;;;;5071824;28;20848;-71
2022/09/19 03:20:11;;;;;;;0.70;0.40;;;;;;;;;;5068949;28;20516;-71
2022/09/19 03:22:40;;;;;;;0.90;0.67;;;;;;;;;;5073821;28;20474;-71
2022/09/19 03:25:08;;;;;;;0.77;0.60;;;;;;;;;;5073898;28;20467;-71
2022/09/19 03:27:36;;;;;;;0.80;0.60;;;;;;;;;;5073406;28;20486;-71
2022/09/19 03:30:04;;;;;;;1.17;0.67;;;;;;;;;;5074102;28;20454;-71
2022/09/19 03:32:31;;;;;;;0.90;0.70;;;;;;;;;;5073061;28;20454;-71
2022/09/19 03:34:58;;;;;;;1.50;0.80;;;;;;;;;;5073901;28;20450;-71
2022/09/19 03:37:25;;;;;;;0.70;0.50;;;;;;;;;;5073411;28;20452;-71
2022/09/19 03:39:54;;;;;;;1.10;0.50;;;;;;;;;;5073522;28;20459;-71
2022/09/19 03:42:21;;;;;;;0.80;0.60;;;;;;;;;;5073440;28;20459;-71
2022/09/19 03:44:48;;;;;;;0.70;0.50;;;;;;;;;;5073313;28;20450;-71
2022/09/19 03:47:15;;;;;;;0.90;0.60;;;;;;;;;;5073436;28;20485;-71
2022/09/19 03:49:43;;;;;;;0.93;0.63;;;;;;;;;;5073778;28;20452;-71
2022/09/19 03:52:10;;;;;;;0.80;0.50;;;;;;;;;;5073503;28;20449;-71
2022/09/19 03:54:38;;;;;;;3.70;0.70;;;;;;;;;;5072786;28;20473;-71
2022/09/19 03:57:07;;;;;;;6.63;0.97;;;;;;;;;;5074224;28;20457;-71
2022/09/19 03:59:35;;;;;;;1.20;1.00;;;;;;;;;;5072929;28;20450;-72
2022/09/19 04:02:02;;;;;;;1.20;0.90;;;;;;;;;;5073833;28;20803;-71
2022/09/19 04:04:29;;;;;;;1.10;0.97;;;;;;;;;;5072246;28;20454;-71
2022/09/19 04:06:56;;;;;;;1.83;0.80;;;;;;;;;;5073435;28;20478;-71
2022/09/19 04:09:23;;;;;;;3.57;0.73;;;;;;;;;;5072292;28;20452;-71
2022/09/19 04:11:50;;;;;;;1.00;0.60;;;;;;;;;;5073480;28;20484;-72
2022/09/19 04:14:19;;;;;;;1.27;0.60;;;;;;;;;;5072443;28;20438;-70
2022/09/19 04:16:46;;;;;;;1.60;0.60;;;;;;;;;;5073542;28;20457;-71
2022/09/19 04:19:13;;;;;;;1.83;0.80;;;;;;;;;;5072827;28;20805;-71
2022/09/19 04:21:41;;;;;;;0.70;0.50;;;;;;;;;;5072732;28;20461;-71
2022/09/19 04:24:09;;;;;;;1.57;0.80;;;;;;;;;;5072637;28;20451;-71
2022/09/19 04:26:36;;;;;;;4.00;1.00;;;;;;;;;;5071903;28;20791;-71
2022/09/19 04:29:03;;;;;;;1.90;0.70;;;;;;;;;;5072292;28;20457;-71
2022/09/19 04:31:35;;;;;;;1.03;0.80;;;;;;;;;;5071699;28;20441;-71
2022/09/19 04:34:03;;;;;;;1.40;0.60;;;;;;;;;;5071821;28;20913;-72
2022/09/19 04:36:31;;;;;;;1.43;0.70;;;;;;;;;;5071679;28;20484;-71
2022/09/19 04:39:02;;;;;;;1.90;0.63;;;;;;;;;;5073278;28;20562;-72
2022/09/19 04:41:32;;;;;;;0.93;0.77;;;;;;;;;;5072314;28;20502;-71
2022/09/19 04:43:59;;;;;;;0.93;0.63;;;13.30;99.90;;;;;;5072551;28;20482;-71
2022/09/19 04:46:26;;;;;;;1.40;0.63;;;8.80;99.90;;;;;;5072243;28;20476;-71
2022/09/19 04:48:56;;;;;;;1.47;0.80;;;8.80;99.90;;;;;;5072696;28;20451;-71
2022/09/19 04:51:23;;;;;;;2.30;0.97;;;8.80;99.90;;;;;;5071634;28;20453;-71
2022/09/19 04:53:51;;;;;;;0.90;0.60;;;8.80;99.90;;;;;;5070224;28;20539;-72
2022/09/19 04:56:20;;;;;;;1.83;0.53;;;8.80;99.90;;;;;;5071641;28;20503;-73
2022/09/19 04:58:47;;;;;;;13.97;1.97;;;8.80;99.90;;;;;;5071401;28;20461;-72
2022/09/19 05:01:14;;;;;;;2.20;0.87;;;8.80;99.90;;;;;;5071903;28;20452;-73
2022/09/19 05:03:43;;;;;;;3.10;0.80;;;8.80;99.90;;;;;;5072264;28;20460;-73
2022/09/19 05:06:12;;;;;;;1.00;0.90;;;8.90;99.90;;;;;;5072223;28;20481;-73
2022/09/19 05:08:40;;;;;;;1.40;0.90;;;9.00;99.90;;;;;;5070659;28;20457;-72
2022/09/19 05:11:08;;;;;;;2.90;1.83;;;9.00;99.90;;;;;;5068038;28;20456;-75
2022/09/19 05:13:38;;;;;;;3.53;1.07;;;9.10;99.90;;;;;;5071298;28;20855;-73
2022/09/19 05:16:06;;;;;;;7.20;0.83;;;9.00;99.90;;;;;;5071212;28;20949;-75
2022/09/19 05:18:37;;;;;;;3.77;1.27;;;9.00;99.90;;;;;;5071193;28;20450;-72
2022/09/19 05:21:06;;;;;;;2.40;1.13;;;9.10;99.90;;;;;;5072211;28;20437;-71
2022/09/19 05:23:36;;;;;;;0.70;0.50;;;9.20;99.90;;;;;;5070929;28;20452;-71
2022/09/19 05:26:04;;;;;;;3.73;0.97;;;9.20;99.90;;;;;;5076599;28;20477;-71
2022/09/19 05:28:31;;;;;;;2.30;0.80;;;9.20;99.90;;;;;;5071337;28;20444;-71
2022/09/19 05:31:04;;;;;;;4.30;1.00;;;9.30;99.90;;;;;;5065883;28;20453;-74
2022/09/19 05:33:31;;;;;;;1.30;1.13;;;9.30;99.90;;;;;;5070931;28;20852;-74
2022/09/19 05:36:00;;;;;;;2.23;1.03;;;9.30;99.90;;;;;;5071539;28;20450;-73
2022/09/19 05:38:27;;;;;;;1.90;1.00;;;9.20;99.90;;;;;;5071368;28;20446;-77
2022/09/19 05:40:57;;;;;;;3.53;0.70;;;9.30;99.90;;;;;;5070449;28;20457;-75
2022/09/19 05:43:24;;;;;;;3.57;0.97;;;9.30;99.90;;;;;;5070993;28;20445;-74
2022/09/19 05:45:52;;;;;;;2.33;1.10;;;9.30;99.90;;;;;;5071687;28;20439;-74
2022/09/19 05:48:19;;;;;;;2.70;1.20;;;9.30;99.90;;;;;;5073938;28;20450;-75
2022/09/19 05:50:47;;;;;;;1.67;0.80;;;9.40;99.90;;;;;;5082123;28;20442;-73
2022/09/19 05:56:01;;;;;;;2.80;2.30;;;9.40;99.90;;;;;;5083927;28;20856;-75
2022/09/19 05:58:29;;;;;;;4.83;0.80;;;9.40;99.90;;;;;;5072147;28;20443;-75
2022/09/19 06:00:56;;;;;;;1.87;0.93;;;9.50;99.90;;;;;;5071442;28;20491;-75
2022/09/19 06:03:22;;;;;;;1.27;0.77;;;9.50;99.90;;;;;;5071514;28;20437;-74
2022/09/19 06:05:51;;;;;;;2.30;0.83;;;9.60;99.90;;;;;;5071390;28;20447;-75
2022/09/19 06:08:19;;;;;;;1.93;0.83;;;;;;;;;;5071207;28;20468;-74
2022/09/19 06:10:46;;;;;;;1.33;0.87;;;;;;;;;;5071133;28;20449;-74
2022/09/19 06:13:16;;;;;;;1.80;1.00;;;;;;;;;;5071734;28;20443;-75
2022/09/19 06:15:43;;;;;;;1.40;0.70;;;;;;;;;;5071367;28;20441;-76
2022/09/19 06:18:10;;;;;;;2.87;0.70;;;;;;;;;;5071825;28;20446;-75
2022/09/19 06:20:37;;;;;;;0.90;0.70;;;;;;;;;;5070456;28;20462;-75
2022/09/19 06:23:06;;;;;;;1.53;1.10;;;;;;;;;;5071394;28;20437;-75
2022/09/19 06:25:33;;;;;;;1.40;0.70;;;;;;;;;;5070381;28;20925;-75
2022/09/19 06:28:01;;;;;;;1.30;1.10;;;;;;;;;;5071435;28;20493;-75
2022/09/19 06:30:30;;;;;;;3.07;0.93;;;;;;;;;;5069867;28;20909;-75
2022/09/19 06:32:57;;;;;;;4.50;0.80;;;;;;;;;;5070974;28;20445;-75
2022/09/19 06:35:28;;;;;;;7.03;1.30;;;;;;;;;;5070649;28;20795;-74
2022/09/19 06:38:00;;;;;;;7.90;1.20;;;;;;;;;;5071423;28;20430;-75
2022/09/19 06:40:27;;;;;;;1.50;0.80;;;;;;;;;;5070544;28;20426;-75
2022/09/19 06:42:58;;;;;;;2.53;1.20;;;;;;;;;;5071040;28;20438;-74
2022/09/19 06:45:26;;;;;;;1.37;0.80;;;;;;;;;;5070196;28;20910;-75
2022/09/19 06:47:58;;;;;;;3.03;0.90;;;;;;;;;;5071088;28;20489;-74
2022/09/19 06:50:25;;;;;;;0.90;0.80;;;;;;;;;;5070107;28;20901;-75
2022/09/19 06:52:52;;;;;;;1.33;1.00;;;;;;;;;;5070637;28;20449;-74
2022/09/19 06:55:19;;;;;;;1.50;0.80;;;;;;;;;;5070637;28;20453;-75
2022/09/19 06:57:54;;;;;;;1.73;0.87;;;;;;;;;;5070708;28;20522;-74
2022/09/19 07:00:24;;;;;;;2.17;1.10;;;;;;;;;;5069920;28;20977;-74
2022/09/19 07:02:52;;;;;;;1.27;0.73;;;;;;;;;;5070736;28;20442;-75
2022/09/19 07:05:21;;;;;;;2.80;1.10;;;;;;;;;;5070657;28;20472;-75
2022/09/19 07:07:51;;;;;;;2.37;1.10;;;;;;;;;;5070445;28;20482;-75
2022/09/19 07:10:19;;;;;;;2.20;1.07;;;;;;;;;;5069695;28;20964;-75
2022/09/19 07:12:51;;;;;;;1.63;1.00;;;;;;;;;;5057402;28;20514;-74
2022/09/19 07:15:18;;;;;;;1.93;1.00;;;;;;;;;;5070349;28;20435;-74
2022/09/19 07:17:45;;;;;;;1.97;0.80;;;;;;;;;;5070553;28;20477;-75
2022/09/19 07:20:13;;;;;;;2.03;0.80;;;;;;;;;;5070563;28;20454;-75
2022/09/19 07:22:42;;;;;;;1.83;1.10;;;;;;;;;;5070302;28;20828;-76
2022/09/19 07:25:09;;;;;;;1.73;0.90;;;;;;;;;;5070747;28;20533;-74
2022/09/19 07:27:37;;;;;;;1.33;0.80;;;;;;;;;;5070165;28;20816;-75
2022/09/19 07:30:04;;;;;;;3.83;1.13;;;;;;;;;;5069986;28;20448;-75
2022/09/19 07:32:32;;;;;;;2.30;0.90;;;;;;;;;;5069707;28;20436;-75
2022/09/19 07:34:59;;;;;;;0.90;0.70;;;;;;;;;;5070683;28;20502;-75
2022/09/19 07:37:26;;;;;;;4.07;1.03;;;;;;;;;;5070211;28;20448;-75
2022/09/19 07:39:55;;;;;;;9.10;1.30;;;;;;;;;;5070137;28;20441;-74
2022/09/19 07:42:22;;;;;;;9.13;1.60;;;;;;;;;;5069836;28;20439;-75
2022/09/19 07:44:49;;;;;;;1.80;1.00;;;;;;;;;;5070317;28;20502;-75
2022/09/19 07:47:29;;;;;;;4.73;0.97;;;;;;;;;;5069898;28;20480;-72
2022/09/19 07:49:56;;;;;;;2.60;0.87;;;;;;;;;;5070145;28;20527;-76
2022/09/19 07:52:23;;;;;;;3.40;1.17;;;;;;;;;;5069632;28;20916;-75
2022/09/19 07:54:50;;;;;;;2.60;1.07;;;;;;;;;;5070437;28;20445;-75
2022/09/19 07:57:19;;;;;;;5.27;1.23;;;;;;;;;;5070366;28;20824;-75
2022/09/19 07:59:47;;;;;;;2.90;1.27;;;;;;;;;;5070121;28;20778;-75
2022/09/19 08:02:14;;;;;;;0.83;0.60;;;;;;;;;;5070133;28;20986;-75
2022/09/19 08:04:41;;;;;;;2.90;1.57;;;;;;;;;;5072498;28;20770;-75
2022/09/19 08:07:09;;;;;;;2.57;0.77;;;;;;;;;;5073552;28;20485;-75
2022/09/19 08:09:36;;;;;;;3.17;1.27;;;;;;;;;;5072784;28;20772;-75
2022/09/19 08:12:04;;;;;;;4.73;0.90;;;;;;;;;;5073839;28;20437;-76
2022/09/19 08:14:32;;;;;;;1.83;0.93;;;;;;;;;;5073267;28;20437;-75
2022/09/19 08:17:00;;;;;;;1.30;0.80;;;;;;;;;;5073380;28;20441;-76
2022/09/19 08:19:27;;;;;;;3.40;1.00;;;;;;;;;;5072645;28;21014;-75
2022/09/19 08:21:54;;;;;;;6.00;0.90;;;;;;;;;;5073833;28;20787;-75
2022/09/19 08:24:22;;;;;;;1.47;0.80;;;;;;;;;;5073360;28;20447;-74
2022/09/19 08:26:50;;;;;;;5.20;0.97;;;;;;;;;;5073534;28;20945;-75
2022/09/19 08:29:17;;;;;;;1.23;0.90;;;;;;;;;;5072769;28;20445;-74
2022/09/19 08:31:45;;;;;;;1.13;0.77;;;;;;;;;;5073305;28;20445;-76
2022/09/19 08:34:12;;;;;;;1.37;1.13;;;;;;;;;;5073624;28;20450;-76
2022/09/19 08:36:40;;;;;;;1.83;1.03;;;;;;;;;;5072832;28;20446;-75
2022/09/19 08:39:07;;;;;;;1.53;0.67;;;;;;;;;;5073109;28;20446;-75
2022/09/19 08:41:46;;;;;;;2.20;1.27;;;;;;;;;;5072406;28;20437;-75
2022/09/19 08:44:16;;;;;;;0.90;0.80;;;;;;;;;;5073520;28;20438;-75
2022/09/19 08:46:46;;;;;;;5.00;1.40;;;;;;;;;;5073218;28;20438;-76
2022/09/19 08:49:15;;;;;;;0.90;0.60;;;;;;;;;;5073083;28;20605;-75
2022/09/19 08:51:48;;;;;;;3.93;1.43;;;;;;;;;;5073379;28;20450;-76
2022/09/19 08:54:16;;;;;;;1.87;1.03;;;;;;;;;;5073277;28;20438;-75
2022/09/19 08:56:44;;;;;;;2.83;1.73;;;;;;;;;;5073256;28;20464;-76
2022/09/19 08:59:13;;;;;;;7.90;1.20;;;;;;;;;;5072549;28;20456;-75
2022/09/19 09:01:40;;;;;;;1.37;1.07;;;;;;;;;;5072133;28;20442;-75
2022/09/19 09:04:22;;;;;;;2.20;1.40;;;;;;;;;;5072972;28;20440;-75
2022/09/19 09:06:59;;;;;;;2.40;1.10;;;;;;;;;;5072902;28;20441;-76
2022/09/19 09:09:31;;;;;;;2.90;1.10;;;;;;;;;;5071466;28;20772;-75
2022/09/19 09:12:02;;;;;;;7.43;1.33;;;;;;;;;;5072755;28;20438;-75
2022/09/19 09:14:37;;;;;;;4.53;1.40;;;;;;;;;;5072028;28;20438;-75
2022/09/19 09:17:15;;;;;;;3.60;0.93;;;;;;;;;;5072657;28;20441;-75
2022/09/19 09:19:58;;;;;;;2.80;1.37;;;;;;;;;;5072356;28;20449;-75
2022/09/19 09:22:27;;;;;;;6.10;1.60;;;;;;;;;;5072057;28;20785;-75
2022/09/19 09:25:00;;;;;;;1.73;0.87;;;;;;;;;;5072165;28;20438;-75
2022/09/19 09:27:33;;;;;;;7.53;1.53;;;;;;;;;;5071664;28;20490;-75
2022/09/19 09:30:03;;;;;;;2.53;0.83;;;;;;;;;;5072039;28;20433;-75
2022/09/19 09:32:32;;;;;;;2.63;1.10;;;;;;;;;;5071933;28;20456;-75
2022/09/19 09:35:03;;;;;;;2.53;1.20;;;;;;;;;;5072307;28;20449;-75
2022/09/19 09:37:33;;;;;;;3.67;1.00;;;;;;;;;;5071451;28;20780;-75
2022/09/19 09:40:09;;;;;;;1.50;0.80;;;;;;;;;;5071888;28;20448;-75
2022/09/19 09:42:39;;;;;;;2.37;1.13;;;;;;;;;;5071813;28;20547;-75
2022/09/19 09:45:13;;;;;;;2.23;0.90;;;;;;;;;;5072468;28;20553;-76
2022/09/19 09:47:45;;;;;;;5.90;1.17;;;;;;;;;;5071224;28;20469;-75
2022/09/19 09:50:32;;;;;;;4.07;1.17;;;;;;;;;;5071758;28;20893;-75
2022/09/19 09:53:04;;;;;;;1.33;1.00;;;;;;;;;;5072461;28;20449;-76
2022/09/19 09:58:25;;;;;;;3.53;1.30;;;;;;;;;;5084891;28;20894;-75
2022/09/19 10:03:49;;;;;;;1.37;1.23;;;;;;;;;;5071621;28;20421;-75
2022/09/19 10:06:18;;;;;;;3.10;0.93;;;;;;;;;;5072281;28;20491;-76
2022/09/19 10:08:58;;;;;;;1.70;0.90;;;;;;;;;;5071719;28;20481;-76
2022/09/19 10:11:32;;;;;;;2.23;1.03;;;;;;;;;;5071364;28;20430;-76
2022/09/19 10:14:01;;;;;;;2.43;1.40;;;;;;;;;;5071434;28;20917;-75
2022/09/19 10:16:29;;;;;;;2.00;0.90;;;;;;;;;;5070875;28;20813;-75
2022/09/19 10:18:59;;;;;;;1.67;0.90;;;;;;;;;;5071124;28;20449;-75
2022/09/19 10:21:26;;;;;;;2.80;1.30;;;;;;;;;;5070953;28;20917;-76
2022/09/19 10:23:56;;;;;;;1.20;0.93;;;;;;;;;;5071416;28;20437;-75
2022/09/19 10:26:28;;;;;;;1.63;0.90;;;;;;;;;;5069854;28;20783;-76
2022/09/19 10:28:59;;;;;;;3.10;1.00;;;;;;;;;;5071057;28;20471;-76
2022/09/19 10:31:32;;;;;;;5.13;0.97;;;;;;;;;;5070972;28;20964;-76
2022/09/19 10:34:05;;;;;;;4.43;1.80;;;;;;;;;;5071350;28;20825;-76
2022/09/19 10:36:33;;;;;;;0.90;0.70;;;;;;;;;;5070636;28;20469;-76
2022/09/19 10:39:05;;;;;;;1.37;0.90;;;;;;;;;;5070777;28;20916;-75
2022/09/19 10:41:33;;;;;;;1.37;0.93;;;;;;;;;;5070498;28;20437;-76
2022/09/19 10:44:01;;;;;;;3.07;1.00;;;;;;;;;;5071273;28;20437;-76
2022/09/19 10:46:31;;;;;;;5.60;1.00;;;;;;;;;;5070424;28;20445;-76
2022/09/19 10:48:59;;;;;;;1.23;0.97;;;;;;;;;;5070494;28;20952;-76
2022/09/19 10:51:29;;;;;;;2.83;0.83;;;;;;;;;;5070473;28;20434;-76
2022/09/19 10:53:57;;;;;;;5.03;0.93;;;;;;;;;;5071203;28;20438;-76
2022/09/19 10:56:28;;;;;;;2.57;0.90;;;;;;;;;;5070411;28;20445;-76
2022/09/19 10:59:01;;;;;;;1.40;0.90;;;;;;;;;;5070430;28;20909;-76
2022/09/19 11:01:28;;;;;;;1.30;1.17;;;;;;;;;;5070350;28;20763;-76
2022/09/19 11:03:59;;;;;;;1.67;0.90;;;;;;;;;;5070970;28;20446;-76
2022/09/19 11:06:26;;;;;;;0.80;0.60;;;;;;;;;;5070221;28;20442;-76
2022/09/19 11:08:54;;;;;;;2.53;1.10;;;;;;;;;;5070359;28;20481;-76
2022/09/19 11:11:32;;;;;;;2.73;0.83;;;;;;;;;;5070565;28;20449;-75
2022/09/19 11:14:15;;;;;;;4.63;0.90;;;;;;;;;;5070820;28;20429;-76
2022/09/19 11:16:46;;;;;;;2.07;0.83;;;;;;;;;;5070539;28;20477;-76
2022/09/19 11:19:18;;;;;;;1.97;0.70;;;;;;;;;;5070479;28;20434;-76
2022/09/19 11:21:51;;;;;;;0.90;0.70;;;;;;;;;;5070552;28;20923;-76
2022/09/19 11:24:42;;;;;;;1.50;0.73;;;;;;;;;;5070484;28;20429;-76
2022/09/19 11:27:23;;;;;;;1.80;0.70;;;;;;;;;;5070518;28;20469;-76
2022/09/19 11:29:59;;;;;;;1.30;0.77;;;;;;;;;;5070142;28;20434;-76
2022/09/19 11:32:39;;;;;;;2.40;0.80;;;;;;;;;;5069895;28;20951;-75
2022/09/19 11:35:08;;;;;;;1.00;0.67;;;;;;;;;;5070834;28;20442;-76
2022/09/19 11:37:44;;;;;;;2.03;0.80;;;;;;;;;;5070483;28;20444;-76
2022/09/19 11:40:23;;;;;;;1.20;0.70;;;;;;;;;;5074249;28;20456;-76
2022/09/19 11:42:55;;;;;;;1.73;0.90;;;;;;;;;;5074474;28;20437;-76
2022/09/19 11:45:24;;;;;;;1.10;0.80;;;;;;;;;;5074048;28;20438;-75
2022/09/19 11:48:10;;;;;;;0.90;0.80;;;;;;;;;;5073900;28;20484;-75
2022/09/19 11:50:45;;;;;;;5.07;0.80;;;;;;;;;;5073452;28;20459;-76
2022/09/19 11:53:28;;;;;;;2.20;0.87;;;;;;;;;;5074291;28;20440;-76
2022/09/19 11:55:59;;;;;;;1.93;0.73;;;;;;;;;;5074197;28;20457;-76
2022/09/19 11:58:31;;;;;;;0.80;0.60;;;;;;;;;;5073868;28;20441;-75
2022/09/19 12:01:05;;;;;;;1.13;0.80;;;;;;;;;;5073319;28;20434;-75
2022/09/19 12:03:39;;;;;;;0.80;0.50;;;;;;;;;;5073686;28;20452;-76
2022/09/19 12:06:12;;;;;;;1.47;0.90;;;;;;;;;;5074049;28;20801;-76
2022/09/19 12:08:45;;;;;;;2.73;1.23;;;;;;;;;;5073415;28;20558;-76
2022/09/19 12:11:14;;;;;;;1.77;0.90;;;;;;;;;;5061263;28;20442;-76
2022/09/19 12:13:43;;;;;;;2.40;0.73;;;;;;;;;;5074013;28;20449;-76
2022/09/19 12:16:13;;;;;;;1.57;1.00;;;;;;;;;;5074250;28;20441;-76
2022/09/19 12:18:43;;;;;;;1.17;0.80;;;;;;;;;;5073003;28;20864;-74
2022/09/19 12:21:11;;;;;;;2.00;0.80;;;;;;;;;;5073630;28;20441;-76
2022/09/19 12:26:29;;;;;;;4.40;0.90;;;;;;;;;;5072869;28;20473;-76
2022/09/19 12:28:59;;;;;;;5.43;1.20;;;;;;;;;;5073082;28;20477;-76
2022/09/19 12:31:29;;;;;;;1.40;0.87;;;;;;;;;;5072602;28;20449;-77
2022/09/19 12:34:00;;;;;;;3.03;1.00;;;;;;;;;;5073768;28;20442;-76
2022/09/19 12:36:30;;;;;;;1.73;0.70;;;;;;;;;;5072772;28;20559;-75
2022/09/19 12:39:00;;;;;;;3.47;1.13;;;;;;;;;;5073013;28;20473;-76
2022/09/19 12:41:32;;;;;;;1.70;0.87;;;;;;;;;;5072812;28;20793;-76
2022/09/19 12:44:04;;;;;;;1.30;0.73;;;;;;;;;;5073572;28;20441;-76
2022/09/19 12:46:40;;;;;;;1.10;0.90;;;;;;;;;;5072579;28;20433;-74
2022/09/19 12:49:14;;;;;;;1.87;0.77;;;;;;;;;;5072241;28;20504;-77
2022/09/19 12:51:47;;;;;;;1.43;0.83;;;;;;;;;;5072819;28;20437;-77
2022/09/19 12:54:16;;;;;;;3.37;0.93;;;;;;;;;;5073292;28;20438;-76
2022/09/19 12:56:45;;;;;;;2.17;0.80;;;;;;;;;;5073136;28;20788;-77
2022/09/19 12:59:16;;;;;;;1.40;0.70;;;;;;;;;;5072468;28;20457;-77
2022/09/19 13:01:48;;;;;;;2.33;0.70;;;;;;;;;;5072611;28;20465;-77
2022/09/19 13:04:28;;;;;;;1.37;1.03;;;;;;;;;;5072626;28;20445;-76
2022/09/19 13:06:57;;;;;;;1.20;0.90;;;;;;;;;;5072821;28;20967;-77
2022/09/19 13:09:27;;;;;;;3.27;1.00;;;;;;;;;;5071797;28;20842;-76
2022/09/19 13:11:56;;;;;;;1.97;1.10;;;;;;;;;;5072834;28;20434;-76
2022/09/19 13:14:31;;;;;;;1.70;0.77;;;;;;;;;;5058873;28;20445;-76
2022/09/19 13:25:27;;;;;;;1.40;0.70;;;;;;;;;;5049195;28;20440;-76
2022/09/19 13:28:19;;;;;;;0.90;0.70;;;;;;;;;;5072782;28;20474;-78
2022/09/19 13:30:48;;;;;;;1.53;1.00;;;;;;;;;;5072050;28;20448;-75
2022/09/19 13:33:22;;;;;;;1.53;0.70;;;;;;;;;;5072511;28;20437;-76
2022/09/19 13:35:51;;;;;;;1.57;0.70;;;;;;;;;;5072482;28;20450;-76
2022/09/19 13:38:25;;;;;;;1.10;0.80;;;;;;;;;;5071435;28;20445;-76
2022/09/19 13:40:59;;;;;;;3.20;0.60;;;;;;;;;;5071678;28;20441;-75
2022/09/19 13:43:29;;;;;;;2.73;0.90;;;;;;;;;;5071597;28;20442;-76
2022/09/19 13:45:59;;;;;;;3.17;0.63;;;;;;;;;;5072101;28;20966;-77
2022/09/19 13:48:32;;;;;;;1.63;0.60;;;;;;;;;;5070940;28;20531;-76
2022/09/19 13:51:03;;;;;;;1.17;0.60;;;;;;;;;;5072143;28;20441;-76
2022/09/19 13:53:33;;;;;;;1.60;0.57;;;;;;;;;;5071864;28;20433;-76
2022/09/19 13:56:00;;;;;;;1.37;1.13;;;;;;;;;;5072017;28;21001;-76
2022/09/19 13:58:31;;;;;;;3.80;0.97;;;;;;;;;;5080838;28;20437;-77
2022/09/19 14:01:15;;;;;;;0.93;0.63;;;;;;;;;;5089786;28;20457;-77
2022/09/19 14:03:45;;;;;;;2.10;0.77;;;;;;;;;;5089526;28;20434;-78
2022/09/19 14:06:20;;;;;;;4.40;0.73;;;;;;;;;;5072221;28;20442;-77
2022/09/19 14:08:48;;;;;;;3.03;0.60;;;;;;;;;;5071132;28;20548;-76
2022/09/19 14:11:18;;;;;;;3.47;1.83;;;;;;;;;;5072154;28;20460;-77
2022/09/19 14:13:45;;;;;;;1.13;0.70;;;;;;;;;;5071769;28;20446;-77
2022/09/19 14:16:36;;;;;;;2.10;0.83;;;;;;;;;;5071575;28;20468;-77
2022/09/19 14:19:28;;;;;;;1.60;0.70;;;;;;;;;;5070888;28;20472;-77
2022/09/19 14:21:59;;;;;;;2.20;1.63;;;;;;;;;;5071442;28;20533;-76
2022/09/19 14:24:33;;;;;;;2.50;1.53;;;;;;;;;;5070913;28;20440;-76
2022/09/19 14:27:07;;;;;;;2.80;0.80;;;;;;;;;;5070555;28;20473;-76
2022/09/19 14:29:37;;;;;;;1.17;0.77;;;;;;;;;;5070531;28;20807;-77
2022/09/19 14:32:10;;;;;;;0.70;0.50;;;;;;;;;;5071453;28;20469;-77
2022/09/19 14:34:54;;;;;;;1.20;0.70;;;;;;;;;;5070941;28;20437;-76
2022/09/19 14:37:37;;;;;;;1.90;0.87;;;;;;;;;;5070654;28;20445;-76
2022/09/19 14:40:29;;;;;;;5.40;0.97;;;;;;;;;;5070960;28;20508;-77
2022/09/19 14:43:10;;;;;;;2.07;0.97;;;;;;;;;;5056404;28;20441;-76
2022/09/19 14:45:56;;;;;;;0.70;0.60;;;;;;;;;;5071043;28;20528;-77
2022/09/19 14:48:28;;;;;;;1.17;0.60;;;;;;;;;;5070477;28;20443;-76
2022/09/19 14:50:58;;;;;;;1.00;0.80;;;;;;;;;;5071324;28;20758;-77
2022/09/19 14:53:26;;;;;;;0.90;0.60;;;;;;;;;;5070641;28;20453;-77
2022/09/19 14:55:58;;;;;;;1.00;0.70;;;;;;;;;;5071043;28;20549;-76
2022/09/19 14:58:27;;;;;;;1.07;0.80;;;;;;;;;;5070284;28;20446;-75
2022/09/19 15:00:55;;;;;;;1.43;0.70;;;;;;;;;;5070909;28;20456;-76
2022/09/19 15:03:22;;;;;;;1.43;0.80;;;;;;;;;;5070326;28;20433;-76
2022/09/19 15:05:50;;;;;;;2.83;1.00;;;;;;;;;;5071077;28;20442;-77
2022/09/19 15:08:25;;;;;;;1.83;0.77;;;;;;;;;;5070378;28;20455;-73
2022/09/19 15:10:59;;;;;;;2.20;1.07;;;;;;;;;;5070958;28;20437;-76
2022/09/19 15:13:26;;;;;;;1.93;0.70;;;;;;;;;;5072392;28;20433;-77